РПИ Алматы

РПИ Алматы является структурным подразделением дивизиона VATRUS сети   VATSIM.

РПИ осуществляет свою деятельность в границах Алматинской и Восточно-Казахстанской областей Республики Казахстан.

Схемы и аэронавигационную информацию можно получить на сайте   Казаэронавигация

Официальный Discord сервер региона Казахстан в VATSIM: https://discord.gg/eERFMeb2xR

Средства связи ОВД:

UAAA_CTR - Алматы Контроль - 131.400

RU-CEN_FSS - Азия Центр  - 132.850 (РПИ: UACNUAAAUAIIUATTUTAAUCFMUTATUTDDUTTRUCFOUTSDUTAVUTAK)

Лого Алматы
Руководство

Evgeny Vygornitsky*

Куратор

Dmitriy Bannov

Помощник куратора по Казахстану

Aleksandr Sokolov

Помощник куратора по Казахстану
Инструкторы РПИ
Aleksandr Sokolov (Instructor)
Dmitriy Bannov (Instructor)
Evgeny Vygornitsky (Supervisor)
Входит в состав
Центральная Азия

Диспетчеры РПИ

Диспетчер Рейтинг Допуски *
Aleksandr Sokolov Instructor UAAA_CTR
Dmitriy Bannov Instructor UAAA_CTR
Alikhan Aidarbek Student UAAA_TWR
Artem Kuzmenko Student 2 UAAA_TWR
Ilya Potapov Student UAAA_GND
Maxim Nazyrov Student 2 UAAA_TWR

Аэропорты РПИ

ICAO Город Название Погода
UAAA Алматы Алматы UAAA 250700Z 27005MPS 9999 -SHRA BKN050CB OVC100 16/10 Q1014 NOSIG